Time;durP1;ratioP1;P1;durP2;ratioP2;P2;SDS_P1;SDS_P2;PMS_P1;PMS_P2;Temp;Humidity;BMP_temperature;BMP_pressure;BME280_temperature;BME280_humidity;BME280_pressure;Samples;Min_cycle;Max_cycle;Signal;HPM_P1;HPM_P2
2023/05/14 00:01:15;;;;;;;6.27;2.53;;;;;;;-143.84;54.77;45100.47;5069008;28;20445;-59
2023/05/14 00:03:42;;;;;;;2.67;2.53;;;;;;;-143.84;54.70;45110.00;5068957;28;20449;-59
2023/05/14 00:06:10;;;;;;;3.00;2.40;;;;;;;-143.84;53.77;45123.34;5068999;28;20441;-59
2023/05/14 00:08:37;;;;;;;3.93;2.37;;;;;;;-143.84;53.92;45113.81;5068969;28;20441;-59
2023/05/14 00:11:04;;;;;;;2.33;2.13;;;;;;;-143.84;53.28;45108.09;5069089;28;20437;-59
2023/05/14 00:13:31;;;;;;;2.50;2.40;;;;;;;-143.84;53.40;45100.47;5068828;28;20507;-59
2023/05/14 00:15:58;;;;;;;3.47;2.70;;;;;;;-143.84;52.92;45127.13;5069063;28;20437;-59
2023/05/14 00:18:26;;;;;;;2.57;2.37;;;;;;;-143.84;52.86;45111.91;5068861;28;20437;-59
2023/05/14 00:20:54;;;;;;;2.93;2.23;;;;;;;-143.84;53.50;45115.72;5068794;28;20449;-59
2023/05/14 00:23:21;;;;;;;3.00;2.50;;;;;;;-143.84;53.64;45094.78;5068462;28;20538;-59
2023/05/14 00:25:48;;;;;;;8.93;2.30;;;;;;;-143.84;53.98;45125.22;5068925;28;20449;-59
2023/05/14 00:28:16;;;;;;;5.73;2.07;;;;;;;-143.84;53.94;45098.56;5068691;28;21086;-59
2023/05/14 00:30:43;;;;;;;3.30;2.30;;;;;;;-143.84;53.28;45130.94;5069164;28;20510;-59
2023/05/14 00:33:10;;;;;;;1.97;1.77;;;;;;;-143.84;51.63;45117.63;5068945;28;20476;-59
2023/05/14 00:35:38;;;;;;;2.37;2.03;;;;;;;-143.84;49.68;45110.00;5068739;28;20515;-59
2023/05/14 00:38:05;;;;;;;2.00;1.80;;;;;;;-143.84;49.22;45125.22;5068736;28;20449;-59
2023/05/14 00:40:32;;;;;;;1.90;1.80;;;;;;;-143.84;49.20;45172.84;5068787;28;20947;-59
2023/05/14 00:43:00;;;;;;;5.10;2.07;;;;;;;-143.84;48.94;45121.44;5068715;28;20865;-59
2023/05/14 00:45:27;;;;;;;7.70;2.47;;;;;;;-143.84;48.54;45098.56;5068768;28;20510;-59
2023/05/14 00:47:55;;;;;;;2.43;2.23;;;;;;;-143.84;48.63;45134.75;5068342;28;20441;-59
2023/05/14 00:50:22;;;;;;;3.10;2.80;;;;;;;-143.84;47.96;45111.91;5068292;28;20441;-59
2023/05/14 00:52:51;;;;;;;3.77;2.20;;;;;;;-143.84;47.38;45121.44;5068197;28;20594;-59
2023/05/14 00:55:19;;;;;;;10.83;2.30;;;;;;;-143.84;47.75;45117.63;5068558;28;20974;-59
2023/05/14 00:57:46;;;;;;;2.73;2.53;;;;;;;-143.84;48.53;45098.56;5068589;28;20481;-59
2023/05/14 01:00:14;;;;;;;2.17;1.97;;;;;;;-143.84;48.27;45083.34;5068262;28;20461;-59
2023/05/14 01:02:41;;;;;;;2.77;2.50;;;;;;;-143.84;48.45;45108.09;5068488;28;20562;-59
2023/05/14 01:05:09;;;;;;;5.10;2.30;;;;;;;-143.84;48.77;45092.88;5068347;28;20437;-59
2023/05/14 01:07:46;;;;;;;2.23;2.03;;;;;;;-143.84;48.51;45127.13;5068465;28;20858;-59
2023/05/14 01:10:21;;;;;;;9.03;2.00;;;;;;;-143.84;48.19;45104.28;5069895;28;20442;-59
2023/05/14 01:13:00;;;;;;;7.27;2.37;;;;;;;-143.84;47.76;45115.72;5071892;28;20472;-59
2023/05/14 01:15:30;;;;;;;3.53;1.83;;;;;;;-143.84;47.76;45111.91;5071629;28;20942;-59
2023/05/14 01:18:01;;;;;;;2.40;2.20;;;;;;;-143.84;48.37;45085.25;5072317;28;20482;-59
2023/05/14 01:20:29;;;;;;;2.40;2.13;;;;;;;-143.84;48.25;45104.28;5072294;28;20429;-59
2023/05/14 01:22:57;;;;;;;2.50;2.30;;;;;;;-143.84;48.94;45117.63;5071836;28;20483;-59
2023/05/14 01:25:24;;;;;;;1.67;1.50;;;;;;;-143.84;48.86;45079.53;5072049;28;20927;-59
2023/05/14 01:27:59;;;;;;;4.57;2.27;;;;;;;-143.84;48.31;45090.97;5071667;28;20545;-59
2023/05/14 01:30:31;;;;;;;4.00;1.80;;;;;;;-143.84;48.29;45110.00;5072273;28;20460;-59
2023/05/14 01:33:00;;;;;;;3.87;2.10;;;;;;;-143.84;48.58;45106.19;5071787;28;20514;-59
2023/05/14 01:35:29;;;;;;;2.37;2.17;;;;;;;-143.84;48.20;45102.38;5071821;28;20440;-59
2023/05/14 01:38:00;;;;;;;1.93;1.73;;;;;;;-143.84;48.33;45140.47;5071835;28;20503;-59
2023/05/14 01:40:27;;;;;;;3.27;1.90;;;;;;;-143.84;48.58;45110.00;5071290;28;20479;-59
2023/05/14 01:42:55;;;;;;;4.10;2.23;;;;;;;-143.84;48.45;45119.53;5071460;28;20437;-59
2023/05/14 01:45:23;;;;;;;4.60;2.37;;;;;;;-143.84;48.63;45115.72;5071851;28;20439;-60
2023/05/14 01:47:50;;;;;;;2.40;2.20;;;;;;;-143.84;49.09;45125.22;5071755;28;20453;-59
2023/05/14 01:50:17;;;;;;;4.10;2.73;;;;;;;-143.84;48.81;45104.28;5071464;28;21005;-59
2023/05/14 01:52:45;;;;;;;2.43;2.13;;;;;;;-143.84;49.23;45100.47;5071591;28;20473;-59
2023/05/14 01:55:14;;;;;;;2.70;2.30;;;;;;;-143.84;49.56;45108.09;5071495;28;20517;-59
2023/05/14 01:57:41;;;;;;;7.13;2.67;;;;;;;-143.84;50.28;45094.78;5071335;28;20532;-59
2023/05/14 02:00:09;;;;;;;2.30;2.10;;;;;;;-143.84;50.68;45110.00;5071419;28;20510;-59
2023/05/14 02:02:36;;;;;;;2.17;1.97;;;;;;;-143.84;50.87;45106.19;5071381;28;20460;-59
2023/05/14 02:05:04;;;;;;;4.97;2.10;;;;;;;-143.84;50.91;45125.22;5070894;28;20437;-59
2023/05/14 02:07:31;;;;;;;4.10;2.20;;;;;;;-143.84;51.30;45102.38;5070937;28;20506;-59
2023/05/14 02:09:58;;;;;;;2.93;2.70;;;;;;;-143.84;51.33;45108.09;5071353;28;20469;-59
2023/05/14 02:12:27;;;;;;;3.63;2.87;;;;;;;-143.84;51.43;45092.88;5071556;28;20472;-59
2023/05/14 02:14:54;;;;;;;4.13;2.33;;;;;;;-143.84;51.73;45106.19;5071295;28;20457;-59
2023/05/14 02:17:21;;;;;;;3.97;2.50;;;;;;;-143.84;52.26;45123.34;5070984;28;20881;-59
2023/05/14 02:19:48;;;;;;;2.90;2.70;;;;;;;-143.84;52.32;45092.88;5070931;28;21074;-59
2023/05/14 02:22:15;;;;;;;3.17;2.87;;;;;;;-143.84;52.89;45092.88;5070664;28;20506;-59
2023/05/14 02:24:42;;;;;;;2.60;2.40;;;;;;;-143.84;53.55;45148.09;5070883;28;20477;-59
2023/05/14 02:27:11;;;;;;;2.70;2.47;;;;;;;-143.84;53.55;45119.53;5070704;28;20489;-59
2023/05/14 02:29:40;;;;;;;2.17;2.07;;;;;;;-143.84;53.61;45113.81;5068579;28;20441;-59
2023/05/14 02:32:07;;;;;;;5.53;2.03;;;;;;;-143.84;54.13;45121.44;5070439;28;20445;-59
2023/05/14 02:34:34;;;;;;;3.67;2.90;;;;;;;-143.84;55.96;45132.84;5070644;28;20491;-59
2023/05/14 02:37:01;;;;;;;3.87;2.67;;;;;;;-143.84;56.86;45132.84;5070654;28;20441;-58
2023/05/14 02:39:29;;;;;;;5.57;3.20;;;;;;;-143.84;57.72;45134.75;5069820;28;20441;-59
2023/05/14 02:41:56;;;;;;;4.50;3.60;;;;;;;-143.84;59.99;45129.03;5070996;28;20433;-58
2023/05/14 02:44:23;;;;;;;3.47;3.20;;;;;;;-143.84;60.52;45089.06;5069889;28;20461;-59
2023/05/14 02:46:51;;;;;;;7.10;3.47;;;;;;;-143.84;60.15;45113.81;5070419;28;20498;-59
2023/05/14 02:49:18;;;;;;;5.00;3.00;;;;;;;-143.84;60.27;45113.81;5070650;28;20445;-59
2023/05/14 02:51:45;;;;;;;2.80;2.60;;;;;;;-143.84;60.46;45098.56;5070456;28;20438;-59
2023/05/14 02:54:12;;;;;;;3.10;2.90;;;;;;;-143.84;59.97;45100.47;5070052;28;20561;-59
2023/05/14 02:56:39;;;;;;;3.03;2.83;;;;;;;-143.84;59.92;45092.88;5069687;28;20487;-59
2023/05/14 02:59:06;;;;;;;3.93;2.80;;;;;;;-143.84;60.07;45106.19;5070663;28;20440;-59
2023/05/14 03:01:34;;;;;;;2.97;2.77;;;;;;;-143.84;60.29;45121.44;5070384;28;20437;-59
2023/05/14 03:04:02;;;;;;;7.27;3.27;;;;;;;-143.84;59.74;45106.19;5070188;28;20542;-59
2023/05/14 03:06:30;;;;;;;3.07;2.87;;;;;;;-143.84;59.93;45134.75;5070511;28;20491;-59
2023/05/14 03:08:57;;;;;;;3.40;3.10;;;;;;;-143.84;60.27;45106.19;5070210;28;20434;-59
2023/05/14 03:11:24;;;;;;;3.30;3.10;;;;;;;-143.84;60.69;45130.94;5069761;28;20441;-59
2023/05/14 03:13:51;;;;;;;5.00;3.07;;;;;;;-143.84;60.38;45132.84;5068926;28;20498;-59
2023/05/14 03:16:18;;;;;;;4.43;2.40;;;;;;;-143.84;60.89;45106.19;5069378;28;20440;-59
2023/05/14 03:18:45;;;;;;;3.17;2.83;;;;;;;-143.84;60.76;45106.19;5069191;28;20441;-59
2023/05/14 03:21:14;;;;;;;2.73;2.53;;;;;;;-143.84;60.91;45142.38;5069319;28;20429;-59
2023/05/14 03:23:41;;;;;;;3.10;2.80;;;;;;;-143.84;60.93;45117.63;5069189;28;20495;-59
2023/05/14 03:26:08;;;;;;;3.73;2.80;;;;;;;-143.84;60.69;45104.28;5069607;28;20582;-59
2023/05/14 03:28:35;;;;;;;2.80;2.60;;;;;;;-143.84;59.81;45100.47;5069453;28;21079;-58
2023/05/14 03:31:02;;;;;;;2.87;2.60;;;;;;;-143.84;58.02;45092.88;5069633;28;21187;-59
2023/05/14 03:33:30;;;;;;;3.40;2.77;;;;;;;-143.84;56.61;45102.38;5068748;28;20484;-59
2023/05/14 03:35:57;;;;;;;3.73;2.77;;;;;;;-143.84;55.04;45136.66;5069644;28;21007;-59
2023/05/14 03:38:25;;;;;;;6.70;2.90;;;;;;;-143.84;53.05;45104.28;5069512;28;20450;-59
2023/05/14 03:40:52;;;;;;;10.43;4.27;;;;;;;-143.84;50.79;45098.56;5069515;28;20960;-59
2023/05/14 03:43:19;;;;;;;5.93;2.60;;;;;;;-143.84;48.60;45058.59;5069399;28;20432;-59
2023/05/14 03:45:51;;;;;;;3.13;2.60;;;;;;;-143.84;48.18;45052.88;5069346;28;20522;-59
2023/05/14 03:48:18;;;;;;;5.20;2.87;;;;;;;-143.84;46.32;45049.06;5069206;28;20449;-60
2023/05/14 03:50:45;;;;;;;2.43;2.10;;;;;;;-143.84;44.13;45052.88;5069211;28;20490;-59
2023/05/14 03:53:12;;;;;;;2.80;2.57;;;;;;;-143.84;43.45;45047.16;5069400;28;20552;-59
2023/05/14 03:55:41;;;;;;;2.40;2.30;;;;;;;-143.84;43.46;45066.22;5069171;28;21355;-60
2023/05/14 03:58:12;;;;;;;2.30;2.10;;;;;;;-143.84;42.09;45041.44;5069137;28;20460;-59
2023/05/14 04:00:40;;;;;;;5.63;2.73;;;;;;;-143.84;42.02;45049.06;5069039;28;20515;-59
2023/05/14 04:03:07;;;;;;;2.40;2.20;;;;;;;-143.84;41.35;45043.34;5069097;28;20442;-59
2023/05/14 04:05:34;;;;;;;2.57;2.27;;;;;;;-143.84;41.33;45041.44;5069367;28;20786;-60
2023/05/14 04:08:02;;;;;;;3.07;2.77;;;;;;;-143.84;41.17;45033.84;5068922;28;20447;-59
2023/05/14 04:10:29;;;;;;;5.90;3.10;;;;;;;-143.84;43.57;45030.03;5068891;28;20450;-60
2023/05/14 04:12:57;;;;;;;3.87;3.07;;;;;;;-143.84;43.45;45014.78;5069243;28;20985;-59
2023/05/14 04:15:25;;;;;;;9.10;3.03;;;;;;;-143.84;43.56;45012.88;5068898;28;20891;-60
2023/05/14 04:17:52;;;;;;;6.93;3.43;;;;;;;-143.84;43.07;45014.78;5068954;28;20444;-60
2023/05/14 04:20:19;;;;;;;6.57;4.43;;;;;;;-143.84;43.17;45020.50;5068737;28;20445;-60
2023/05/14 04:22:46;;;;;;;5.30;3.33;;;;;;;-143.84;42.74;45024.31;5069387;28;20503;-60
2023/05/14 04:25:13;;;;;;;6.60;3.57;;;;;;;-143.84;41.54;45016.69;5069098;28;20481;-60
2023/05/14 04:27:40;;;;;;;3.70;3.20;;;;;;;-143.84;41.31;45012.88;5069022;28;21412;-60
2023/05/14 04:30:10;;;;;;;2.87;2.67;;;;;;;-143.84;40.76;45024.31;5069105;28;21374;-60
2023/05/14 04:32:38;;;;;;;5.97;3.23;;;;;;;-143.84;40.21;45020.50;5068917;28;20452;-60
2023/05/14 04:35:06;;;;;;;3.50;3.00;;;;;;;-143.84;40.37;45014.78;5068654;28;20489;-59
2023/05/14 04:37:33;;;;;;;2.77;2.53;;;;;;;-143.84;40.02;45012.88;5068660;28;20449;-60
2023/05/14 04:40:01;;;;;;;5.67;2.80;;;;;;;-143.84;39.17;45028.13;5068899;28;20841;-60
2023/05/14 04:42:28;;;;;;;2.87;2.10;;;;;;;-143.84;37.19;45035.75;5069094;28;20445;-60
2023/05/14 04:44:55;;;;;;;9.00;2.47;;;;;;;-143.84;37.73;45003.38;5071295;28;20429;-60
2023/05/14 04:47:23;;;;;;;7.63;2.37;;;;;;;-143.84;37.21;44997.66;5072729;28;20441;-60
2023/05/14 04:49:50;;;;;;;2.13;1.93;;;;;;;-143.84;36.72;45018.59;5072410;28;20503;-60
2023/05/14 04:52:18;;;;;;;9.20;2.83;;;;;;;-143.84;36.58;45005.28;5072581;28;20441;-60
2023/05/14 04:54:45;;;;;;;3.30;2.33;;;;;;;-143.84;35.85;45026.22;5072878;28;20496;-60
2023/05/14 04:57:12;;;;;;;5.43;2.20;;;;;;;-143.84;35.39;45022.41;5072599;28;20445;-60
2023/05/14 04:59:39;;;;;;;2.03;1.83;;;;;;;-143.84;34.54;45003.38;5072509;28;20483;-60
2023/05/14 05:02:06;;;;;;;1.70;1.60;;;;;;;-143.84;34.76;45010.97;5072618;28;20437;-59
2023/05/14 05:04:35;;;;;;;3.27;2.27;;;;;;;-143.84;34.23;45009.09;5072552;28;20438;-59
2023/05/14 05:07:02;;;;;;;3.50;2.40;;;;;;;-143.84;34.37;44976.72;5072493;28;20456;-59
2023/05/14 05:09:29;;;;;;;1.90;1.80;;;;;;;-143.84;33.43;44986.22;5072461;28;20988;-59
2023/05/14 05:11:56;;;;;;;3.53;2.03;;;;;;;-143.84;33.42;44980.53;5072442;28;20437;-59
2023/05/14 05:14:23;;;;;;;2.37;2.17;;;;;;;-143.84;34.01;44991.94;5071999;28;20477;-59
2023/05/14 05:16:51;;;;;;;4.57;2.20;;;;;;;-143.84;33.92;45001.47;5072240;28;20958;-59
2023/05/14 05:19:18;;;;;;;1.70;1.50;;;;;;;-143.84;34.51;44991.94;5072022;28;20449;-59
2023/05/14 05:21:47;;;;;;;2.17;2.00;;;;;;;-143.84;33.94;45005.28;5071954;28;20566;-59
2023/05/14 05:24:14;;;;;;;2.60;2.17;;;;;;;-143.84;34.18;44999.56;5072180;28;20506;-59
2023/05/14 05:26:41;;;;;;;4.10;1.70;;;;;;;-143.84;33.76;45012.88;5071590;28;20512;-59
2023/05/14 05:29:08;;;;;;;5.63;1.87;;;;;;;-143.84;33.63;45007.19;5071700;28;20434;-59
2023/05/14 05:31:35;;;;;;;2.50;2.30;;;;;;;-143.84;33.20;44995.75;5071530;28;20514;-59
2023/05/14 05:34:03;;;;;;;2.47;1.50;;;;;;;-143.84;32.81;45009.09;5071150;28;20538;-59
2023/05/14 05:36:30;;;;;;;3.93;1.70;;;;;;;-143.84;31.45;45012.88;5072006;28;20494;-58
2023/05/14 05:38:59;;;;;;;7.10;1.57;;;;;;;-143.84;30.66;44980.53;5071791;28;20490;-59
2023/05/14 05:41:26;;;;;;;8.37;2.50;;;;;;;-143.84;32.88;44978.63;5071812;28;20435;-60
2023/05/14 05:43:53;;;;;;;1.60;1.50;;;;;;;-143.84;30.64;44984.31;5071610;28;20447;-59
2023/05/14 05:46:20;;;;;;;12.43;2.03;;;;;;;-143.84;31.35;45001.47;5071695;28;20559;-58
2023/05/14 05:48:47;;;;;;;4.27;2.00;;;;;;;-143.84;30.59;44991.94;5071569;28;20868;-59
2023/05/14 05:51:14;;;;;;;5.77;1.80;;;;;;;-143.84;30.65;44991.94;5071465;28;20437;-59
2023/05/14 05:53:42;;;;;;;2.43;1.50;;;;;;;-143.84;29.90;44969.09;5070937;28;20554;-58
2023/05/14 05:56:10;;;;;;;2.20;1.90;;;;;;;-143.84;29.24;44974.81;5070877;28;20617;-59
2023/05/14 05:58:37;;;;;;;3.53;1.33;;;;;;;-143.84;29.04;44984.31;5071202;28;20437;-59
2023/05/14 06:01:05;;;;;;;3.07;1.77;;;;;;;-143.84;29.79;44974.81;5071481;28;20499;-59
2023/05/14 06:03:32;;;;;;;1.43;1.33;;;;;;;-143.84;28.52;44986.22;5071766;28;20458;-59
2023/05/14 06:05:59;;;;;;;2.93;1.40;;;;;;;-143.84;28.96;44988.13;5071536;28;20446;-60
2023/05/14 06:08:26;;;;;;;3.73;1.27;;;;;;;-143.84;29.01;44999.56;5071477;28;20857;-59
2023/05/14 06:10:53;;;;;;;4.40;1.80;;;;;;;-143.84;27.88;44980.53;5071357;28;20501;-59
2023/05/14 06:13:22;;;;;;;5.23;1.50;;;;;;;-143.84;28.67;44976.72;5071092;28;20485;-59
2023/05/14 06:15:49;;;;;;;29.60;2.23;;;;;;;-143.84;28.48;44978.63;5071583;28;20512;-59
2023/05/14 06:18:16;;;;;;;2.40;1.63;;;;;;;-143.84;27.98;44993.84;5071392;28;20436;-59
2023/05/14 06:20:43;;;;;;;1.63;1.30;;;;;;;-143.84;27.87;44978.63;5070999;28;20567;-59
2023/05/14 06:23:11;;;;;;;1.90;1.80;;;;;;;-143.84;29.42;44980.53;5070723;28;21013;-59
2023/05/14 06:25:38;;;;;;;5.07;1.97;;;;;;;-143.84;28.03;44974.81;5070491;28;20441;-59
2023/05/14 06:28:05;;;;;;;3.83;1.43;;;;;;;-143.84;28.76;44955.75;5070769;28;20477;-59
2023/05/14 06:30:33;;;;;;;3.50;1.70;;;;;;;-143.84;29.21;44953.88;5055181;28;20522;-59
2023/05/14 06:33:01;;;;;;;7.13;1.73;;;;;;;-143.84;30.21;44969.09;5050919;28;20519;-59
2023/05/14 06:35:28;;;;;;;3.47;2.77;;;;;;;-143.84;30.05;44963.38;5050889;28;20977;-58
2023/05/14 06:37:55;;;;;;;1.70;1.57;;;;;;;-143.84;29.46;44971.00;5051066;28;20432;-59
2023/05/14 06:40:22;;;;;;;2.23;2.03;;;;;;;-143.84;29.94;44961.47;5050440;28;20945;-59
2023/05/14 06:42:49;;;;;;;2.73;1.73;;;;;;;-143.84;29.99;44978.63;5050774;28;20441;-59
2023/05/14 06:45:16;;;;;;;3.00;2.13;;;;;;;-143.84;28.37;44955.75;5050778;28;20452;-59
2023/05/14 06:47:45;;;;;;;5.60;2.37;;;;;;;-143.84;28.68;44978.63;5050652;28;20436;-59
2023/05/14 06:50:12;;;;;;;5.80;2.27;;;;;;;-143.84;28.54;44978.63;5050407;28;20457;-59
2023/05/14 06:52:39;;;;;;;6.30;2.20;;;;;;;-143.84;28.90;44971.00;5050399;28;20448;-59
2023/05/14 06:55:07;;;;;;;2.17;1.80;;;;;;;-143.84;29.18;45005.28;5050008;28;20485;-59
2023/05/14 06:57:34;;;;;;;3.63;2.00;;;;;;;-143.84;28.87;44965.28;5050152;28;20493;-59
2023/05/14 07:00:01;;;;;;;2.03;1.70;;;;;;;-143.84;29.19;44971.00;5050029;28;20511;-59
2023/05/14 07:02:28;;;;;;;5.90;1.60;;;;;;;-143.84;29.63;44961.47;5050185;28;20448;-59
2023/05/14 07:04:57;;;;;;;3.10;1.80;;;;;;;-143.84;29.89;44972.91;5058194;28;20440;-59
2023/05/14 07:07:24;;;;;;;2.50;1.80;;;;;;;-143.84;29.71;44974.81;5070742;28;20508;-59
2023/05/14 07:09:51;;;;;;;4.60;1.67;;;;;;;-143.84;30.48;44969.09;5072391;28;20513;-59
2023/05/14 07:12:18;;;;;;;2.50;2.03;;;;;;;-143.84;29.00;44971.00;5072396;28;20437;-58
2023/05/14 07:14:45;;;;;;;4.80;1.97;;;;;;;-143.84;29.58;44961.47;5072268;28;20483;-59
2023/05/14 07:17:12;;;;;;;5.30;2.10;;;;;;;-143.84;30.06;44986.22;5071197;28;20436;-58
2023/05/14 07:19:39;;;;;;;5.00;2.00;;;;;;;-143.84;30.78;44963.38;5071058;28;20443;-59
2023/05/14 07:22:08;;;;;;;2.10;1.60;;;;;;;-143.84;29.74;44978.63;5071515;28;20515;-58
2023/05/14 07:24:35;;;;;;;4.97;2.10;;;;;;;-143.84;30.08;44980.53;5071848;28;20439;-58
2023/05/14 07:27:02;;;;;;;2.20;2.00;;;;;;;-143.84;31.10;44986.22;5071221;28;20481;-58
2023/05/14 07:29:30;;;;;;;7.13;2.47;;;;;;;-143.84;30.34;44976.72;5071724;28;20485;-58
2023/05/14 07:31:57;;;;;;;6.87;2.10;;;;;;;-143.84;29.35;44972.91;5059813;28;20478;-59
2023/05/14 07:34:24;;;;;;;4.07;1.90;;;;;;;-143.84;29.90;44950.06;5055093;28;20584;-59
2023/05/14 07:36:51;;;;;;;8.70;1.90;;;;;;;-143.84;29.08;44974.81;5058419;28;20877;-59
2023/05/14 07:39:19;;;;;;;7.80;2.43;;;;;;;-143.84;28.89;44972.91;5056218;28;20487;-59
2023/05/14 07:41:47;;;;;;;2.00;1.80;;;;;;;-143.84;29.35;44972.91;5058754;28;20437;-59
2023/05/14 07:44:14;;;;;;;1.73;1.60;;;;;;;-143.84;29.87;44965.28;5057748;28;20445;-59
2023/05/14 07:46:42;;;;;;;8.83;1.83;;;;;;;-143.84;30.77;44984.31;5058149;28;20447;-59
2023/05/14 07:49:09;;;;;;;5.30;1.70;;;;;;;-143.84;31.01;44963.38;5051375;28;20444;-59
2023/05/14 07:51:36;;;;;;;5.00;3.33;;;;;;;-143.84;30.74;44988.13;5055622;28;20444;-59
2023/05/14 07:54:03;;;;;;;6.30;2.27;;;;;;;-143.84;32.69;44961.47;5057607;28;20508;-59
2023/05/14 07:56:32;;;;;;;6.53;1.80;;;;;;;-143.84;31.29;44986.22;5057925;28;20830;-59
2023/05/14 07:58:59;;;;;;;1.80;1.70;;;;;;;-143.84;30.58;44955.75;5056254;28;20469;-59
2023/05/14 08:01:26;;;;;;;2.13;1.93;;;;;;;-143.84;29.94;44965.28;5054441;28;20458;-59
2023/05/14 08:03:53;;;;;;;2.67;1.90;;;;;;;-143.84;30.68;44993.84;5053629;28;20479;-59
2023/05/14 08:06:21;;;;;;;2.87;1.77;;;;;;;-143.84;30.85;44969.09;5055864;28;20968;-59
2023/05/14 08:08:48;;;;;;;6.47;2.27;;;;;;;-143.84;30.61;44978.63;5058258;28;20519;-59
2023/05/14 08:11:15;;;;;;;3.33;1.83;;;;;;;-143.84;31.21;44990.03;5056900;28;20447;-59
2023/05/14 08:13:44;;;;;;;6.40;2.30;;;;;;;-143.84;29.84;45010.97;5064421;28;20570;-59
2023/05/14 08:16:11;;;;;;;11.87;1.80;;;;;;;-143.84;30.70;44990.03;5066866;28;21226;-59
2023/05/14 08:18:38;;;;;;;1.63;1.53;;;;;;;-143.84;29.84;44980.53;5059200;28;20465;-59
2023/05/14 08:21:06;;;;;;;1.90;1.70;;;;;;;-143.84;28.63;44978.63;5051839;28;20450;-59
2023/05/14 08:23:33;;;;;;;2.13;1.80;;;;;;;-143.84;29.21;44980.53;5048802;28;20493;-59
2023/05/14 08:26:00;;;;;;;2.10;1.73;;;;;;;-143.84;27.39;44988.13;5048994;28;20850;-59
2023/05/14 08:28:27;;;;;;;7.70;1.80;;;;;;;-143.84;27.88;44957.66;5048649;28;20496;-59
2023/05/14 08:30:57;;;;;;;4.30;2.00;;;;;;;-143.84;29.81;44980.53;5052981;28;21305;-59
2023/05/14 08:33:24;;;;;;;2.00;1.80;;;;;;;-143.84;29.19;44993.84;5068860;28;20447;-59
2023/05/14 08:35:53;;;;;;;4.37;1.83;;;;;;;-143.84;29.41;44978.63;5068693;28;20831;-59
2023/05/14 08:38:20;;;;;;;2.50;2.07;;;;;;;-143.84;28.64;44957.66;5068882;28;20447;-59
2023/05/14 08:40:48;;;;;;;5.87;2.17;;;;;;;-143.84;30.64;44955.75;5068839;28;20480;-59
2023/05/14 08:43:20;;;;;;;9.83;2.20;;;;;;;-143.84;29.37;44995.75;5068017;28;20496;-59
2023/05/14 08:45:50;;;;;;;2.90;1.70;;;;;;;-143.84;30.18;45009.09;5069025;28;20536;-59
2023/05/14 08:48:22;;;;;;;7.80;2.50;;;;;;;-143.84;29.46;44988.13;5068728;28;20462;-59
2023/05/14 08:50:49;;;;;;;7.77;1.90;;;;;;;-143.84;30.28;44993.84;5068738;28;20449;-59
2023/05/14 08:53:16;;;;;;;10.97;2.50;;;;;;;-143.84;30.66;44997.66;5084304;28;20455;-59
2023/05/14 08:55:46;;;;;;;5.20;1.90;;;;;;;-143.84;31.52;45005.28;5088659;28;21004;-60
2023/05/14 08:58:13;;;;;;;5.20;2.33;;;;;;;-143.84;31.49;44988.13;5088906;28;20449;-60
2023/05/14 09:00:41;;;;;;;1.73;1.63;;;;;;;-143.84;30.96;45010.97;5088902;28;21310;-60
2023/05/14 09:03:08;;;;;;;2.53;2.33;;;;;;;-143.84;31.77;44999.56;5089240;28;20436;-60
2023/05/14 09:05:37;;;;;;;6.10;1.90;;;;;;;-143.84;30.21;45009.09;5088475;28;20969;-60
2023/05/14 09:08:04;;;;;;;5.97;2.47;;;;;;;-143.84;30.35;44967.19;5088529;28;20794;-60
2023/05/14 09:10:32;;;;;;;3.60;1.50;;;;;;;-143.84;30.25;44990.03;5088466;28;20443;-60
2023/05/14 09:12:59;;;;;;;6.00;1.97;;;;;;;-143.84;31.21;45007.19;5088502;28;20432;-61
2023/05/14 09:15:29;;;;;;;6.63;1.60;;;;;;;-143.84;28.39;45018.59;5088607;28;20472;-60
2023/05/14 09:17:56;;;;;;;3.53;3.00;;;;;;;-143.84;29.93;45010.97;5072934;28;20808;-61
2023/05/14 09:20:24;;;;;;;4.40;2.73;;;;;;;-143.84;29.21;44967.19;5048442;28;20479;-60
2023/05/14 09:22:55;;;;;;;2.20;2.00;;;;;;;-143.84;29.79;44984.31;5048276;28;20438;-60
2023/05/14 09:25:27;;;;;;;1.70;1.60;;;;;;;-143.84;29.87;44988.13;5048599;28;20520;-60
2023/05/14 09:27:54;;;;;;;3.10;1.70;;;;;;;-143.84;30.95;45007.19;5047953;28;20508;-60
2023/05/14 09:30:21;;;;;;;2.93;2.50;;;;;;;-143.84;31.89;44986.22;5048419;28;20440;-60
2023/05/14 09:32:49;;;;;;;5.70;3.47;;;;;;;-143.84;30.84;45007.19;5076369;28;20452;-60
2023/05/14 09:35:18;;;;;;;2.43;2.23;;;;;;;-143.84;32.31;45028.13;5092257;28;20578;-60
2023/05/14 09:37:47;;;;;;;4.13;1.87;;;;;;;-143.84;32.74;45007.19;5092264;28;20490;-60
2023/05/14 09:40:19;;;;;;;2.23;2.03;;;;;;;-143.84;33.63;45043.34;5092177;28;20503;-60
2023/05/14 09:42:47;;;;;;;4.43;2.20;;;;;;;-143.84;33.33;45014.78;5091673;28;20441;-60
2023/05/14 09:45:15;;;;;;;3.00;2.47;;;;;;;-143.84;34.07;45010.97;5091641;28;20450;-60
2023/05/14 09:47:43;;;;;;;2.47;2.23;;;;;;;-143.84;32.54;45009.09;5091600;28;20428;-60
2023/05/14 09:50:11;;;;;;;2.30;1.97;;;;;;;-143.84;32.33;45003.38;5091809;28;20510;-60
2023/05/14 09:52:38;;;;;;;2.50;2.20;;;;;;;-143.84;33.86;45018.59;5091926;28;20500;-60
2023/05/14 09:55:07;;;;;;;3.30;2.40;;;;;;;-143.84;33.20;45010.97;5091737;28;20841;-60
2023/05/14 09:57:36;;;;;;;3.63;2.13;;;;;;;-143.84;35.02;45009.09;5091906;28;20439;-60
2023/05/14 10:00:03;;;;;;;2.33;2.00;;;;;;;-143.84;34.11;45024.31;5091679;28;20527;-61
2023/05/14 10:02:36;;;;;;;2.90;1.90;;;;;;;-143.84;34.41;45012.88;5091739;28;20521;-60
2023/05/14 10:05:05;;;;;;;10.50;2.60;;;;;;;-143.84;34.82;45016.69;5091551;28;20530;-60
2023/05/14 10:07:38;;;;;;;4.53;2.03;;;;;;;-143.84;36.05;45003.38;5092082;28;20443;-60
2023/05/14 10:10:08;;;;;;;4.37;2.13;;;;;;;-143.84;35.30;45014.78;5091569;28;20443;-60
2023/05/14 10:12:40;;;;;;;2.90;1.90;;;;;;;-143.84;32.53;45003.38;5091252;28;20458;-60
2023/05/14 10:15:13;;;;;;;3.70;1.67;;;;;;;-143.84;34.05;45007.19;5091257;28;20577;-60
2023/05/14 10:17:44;;;;;;;2.17;1.97;;;;;;;-143.84;33.75;45045.25;5091310;28;21176;-60
2023/05/14 10:20:15;;;;;;;3.20;1.80;;;;;;;-143.84;34.39;45028.13;5091306;28;20607;-59
2023/05/14 10:22:42;;;;;;;4.30;2.57;;;;;;;-143.84;36.93;45009.09;5081509;28;20443;-59
2023/05/14 10:25:10;;;;;;;2.30;1.60;;;;;;;-143.84;36.93;45014.78;5070995;28;20493;-60
2023/05/14 10:27:39;;;;;;;3.00;1.90;;;;;;;-143.84;36.19;45024.31;5069743;28;21002;-60
2023/05/14 10:30:11;;;;;;;2.73;2.53;;;;;;;-143.84;38.74;45041.44;5070353;28;20434;-60
2023/05/14 10:32:40;;;;;;;3.03;2.43;;;;;;;-143.84;38.81;45033.84;5069567;28;20526;-60
2023/05/14 10:35:17;;;;;;;3.40;2.20;;;;;;;-143.84;37.18;45039.53;5070276;28;20466;-60
2023/05/14 10:37:44;;;;;;;10.00;2.87;;;;;;;-143.84;39.64;45018.59;5068394;28;20536;-60
2023/05/14 10:40:13;;;;;;;7.00;3.23;;;;;;;-143.84;40.73;45022.41;5070113;28;20956;-60
2023/05/14 10:42:44;;;;;;;4.30;2.37;;;;;;;-143.84;40.16;45024.31;5070739;28;20434;-60
2023/05/14 10:45:14;;;;;;;5.67;2.60;;;;;;;-143.84;40.16;45031.94;5069962;28;20439;-60
2023/05/14 10:47:43;;;;;;;7.00;2.60;;;;;;;-143.84;40.39;45081.44;5067631;28;20988;-67
2023/05/14 10:50:12;;;;;;;2.73;2.53;;;;;;;-143.84;43.37;45049.06;5069938;28;20495;-59
2023/05/14 10:52:43;;;;;;;8.70;3.10;;;;;;;-143.84;44.80;45016.69;5069953;28;20446;-60
2023/05/14 10:55:13;;;;;;;2.20;2.10;;;;;;;-143.84;39.66;45031.94;5070093;28;20474;-60
2023/05/14 10:57:43;;;;;;;6.53;2.47;;;;;;;-143.84;40.26;45018.59;5071412;28;20441;-58
2023/05/14 11:00:12;;;;;;;3.13;2.60;;;;;;;-143.84;41.29;45043.34;5070580;28;20435;-58
2023/05/14 11:02:40;;;;;;;4.77;2.20;;;;;;;-143.84;38.57;45007.19;5070638;28;21079;-58
2023/05/14 11:05:10;;;;;;;2.00;1.90;;;;;;;-143.84;35.53;45033.84;5071134;28;20442;-58
2023/05/14 11:07:39;;;;;;;2.80;2.57;;;;;;;-143.84;37.95;45003.38;5071537;28;20450;-58
2023/05/14 11:10:08;;;;;;;3.00;2.37;;;;;;;-143.84;39.21;45033.84;5070751;28;20434;-58
2023/05/14 11:12:37;;;;;;;4.20;2.60;;;;;;;-143.84;38.21;45037.66;5070562;28;20937;-59
2023/05/14 11:15:09;;;;;;;3.53;2.03;;;;;;;-143.84;35.22;45033.84;5070167;28;20454;-59
2023/05/14 11:17:37;;;;;;;3.70;2.40;;;;;;;-143.84;36.87;45003.38;5070342;28;20939;-59
2023/05/14 11:20:05;;;;;;;2.87;2.03;;;;;;;-143.84;35.33;45037.66;5070163;28;20442;-59